Time;durP1;ratioP1;P1;durP2;ratioP2;P2;SDS_P1;SDS_P2;PMS_P1;PMS_P2;Temp;Humidity;BMP_temperature;BMP_pressure;BME280_temperature;BME280_humidity;BME280_pressure;Samples;Min_cycle;Max_cycle;Signal;HPM_P1;HPM_P2
2023/07/12 00:00:43;;;;;;;30.13;27.42;;;19.50;99.90;;;;;;5004005;28;20034;-63
2023/07/12 00:03:09;;;;;;;29.80;26.98;;;19.50;92.20;;;;;;5010940;28;20041;-64
2023/07/12 00:05:35;;;;;;;29.05;26.13;;;19.60;63.00;;;;;;5013443;28;20099;-65
2023/07/12 00:08:02;;;;;;;29.35;26.65;;;19.60;24.60;;;;;;5016856;28;20042;-64
2023/07/12 00:10:33;;;;;;;28.50;25.73;;;19.60;1.40;;;;;;5010737;28;20030;-63
2023/07/12 00:12:58;;;;;;;29.13;26.05;;;19.60;1.00;;;;;;5017512;28;20061;-64
2023/07/12 00:15:26;;;;;;;28.52;25.83;;;19.80;1.00;;;;;;5013599;28;20041;-64
2023/07/12 00:17:53;;;;;;;29.65;26.40;;;19.80;1.00;;;;;;5010343;28;20443;-63
2023/07/12 00:20:23;;;;;;;29.40;26.42;;;19.80;1.00;;;;;;5010441;28;20040;-64
2023/07/12 00:22:51;;;;;;;29.75;26.92;;;19.80;1.00;;;;;;5014276;28;20044;-63
2023/07/12 00:25:18;;;;;;;30.02;26.55;;;19.80;1.00;;;;;;5024762;28;20037;-63
2023/07/12 00:27:44;;;;;;;30.48;27.08;;;19.90;1.00;;;;;;5014477;28;20172;-63
2023/07/12 00:30:34;;;;;;;30.30;27.15;;;19.90;1.00;;;;;;5020452;28;20117;-63
2023/07/12 00:33:03;;;;;;;33.22;28.85;;;19.80;1.00;;;;;;5010445;28;20037;-64
2023/07/12 00:35:30;;;;;;;29.40;26.45;;;19.90;1.00;;;;;;5011948;28;20511;-64
2023/07/12 00:38:00;;;;;;;32.95;28.15;;;19.80;1.00;;;;;;5017940;28;20095;-63
2023/07/12 00:40:29;;;;;;;31.40;28.17;;;19.80;1.00;;;;;;5013130;28;20044;-63
2023/07/12 00:43:05;;;;;;;32.35;27.20;;;19.80;1.00;;;;;;5027709;28;20407;-64
2023/07/12 00:45:32;;;;;;;31.23;28.10;;;19.80;1.00;;;;;;5014970;28;20049;-63
2023/07/12 00:47:58;;;;;;;30.35;27.25;;;19.70;40.90;;;;;;5002474;28;20087;-64
2023/07/12 00:50:24;;;;;;;32.55;29.17;;;19.80;99.00;;;;;;5009792;28;20048;-64
2023/07/12 00:52:51;;;;;;;33.92;29.60;;;19.70;99.90;;;;;;5013847;28;20153;-63
2023/07/12 00:55:54;;;;;;;31.27;28.08;;;19.70;99.90;;;;;;5011922;28;20049;-63
2023/07/12 00:58:19;;;;;;;32.45;29.05;;;19.70;99.90;;;;;;5003674;28;20504;-63
2023/07/12 01:00:46;;;;;;;34.47;30.52;;;19.70;1.00;;;;;;5018833;28;20056;-64
2023/07/12 01:03:14;;;;;;;37.50;30.83;;;19.60;1.00;;;;;;5015268;28;20038;-63
2023/07/12 01:05:44;;;;;;;32.15;29.05;;;19.80;99.90;;;;;;5017748;28;20046;-63
2023/07/12 01:08:11;;;;;;;35.05;31.42;;;19.60;99.90;;;;;;5016370;28;20573;-64
2023/07/12 01:10:38;;;;;;;35.80;30.77;;;19.80;99.90;;;;;;5009811;28;20594;-63
2023/07/12 01:13:05;;;;;;;37.22;33.17;;;19.70;1.00;;;;;;5010048;28;20066;-63
2023/07/12 01:15:32;;;;;;;39.50;32.47;;;19.70;68.80;;;;;;5011774;28;20033;-63
2023/07/12 01:17:58;;;;;;;35.13;31.50;;;19.90;99.90;;;;;;5013558;28;20081;-63
2023/07/12 01:20:24;;;;;;;37.10;33.17;;;19.70;1.00;;;;;;5018138;28;20033;-63
2023/07/12 01:22:54;;;;;;;42.10;33.45;;;19.80;99.90;;;;;;5022036;28;20065;-63
2023/07/12 01:25:42;;;;;;;38.80;33.20;;;19.90;1.00;;;;;;5010553;28;22052;-64
2023/07/12 01:28:08;;;;;;;37.42;32.85;;;19.80;99.90;;;;;;5008420;28;20497;-64
2023/07/12 01:30:34;;;;;;;38.60;34.17;;;19.90;1.00;;;;;;5016662;28;20029;-63
2023/07/12 01:32:59;;;;;;;42.92;32.80;;;20.00;99.90;;;;;;5000445;28;20030;-64
2023/07/12 01:35:25;;;;;;;38.15;32.00;;;19.90;99.90;;;;;;5017530;28;20048;-63
2023/07/12 01:37:51;;;;;;;37.05;31.27;;;19.90;99.90;;;;;;5009476;28;20034;-63
2023/07/12 01:40:17;;;;;;;38.50;31.52;;;19.90;1.00;;;;;;5020634;28;20459;-64
2023/07/12 01:42:43;;;;;;;38.42;31.77;;;20.00;99.90;;;;;;5014199;28;20065;-63
2023/07/12 01:45:09;;;;;;;37.28;31.73;;;20.00;86.20;;;;;;5014646;28;20053;-64
2023/07/12 01:47:35;;;;;;;36.30;32.25;;;20.10;1.00;;;;;;5025814;28;20537;-63
2023/07/12 01:50:00;;;;;;;39.72;34.05;;;20.10;99.90;;;;;;5029337;28;20108;-63
2023/07/12 01:52:26;;;;;;;36.92;33.00;;;20.10;99.90;;;;;;5013161;28;20053;-64
2023/07/12 01:54:52;;;;;;;41.40;32.50;;;20.20;9.80;;;;;;5010487;28;20042;-63
2023/07/12 01:57:17;;;;;;;37.35;31.70;;;20.20;1.00;;;;;;5014143;28;20561;-63
2023/07/12 01:59:43;;;;;;;37.78;31.85;;;20.20;99.90;;;;;;5033210;28;20096;-63
2023/07/12 02:02:08;;;;;;;38.75;31.92;;;20.10;99.90;;;;;;5027888;28;20400;-63
2023/07/12 02:04:34;;;;;;;39.30;31.50;;;20.20;99.90;;;;;;5015977;28;20041;-64
2023/07/12 02:07:03;;;;;;;37.08;31.02;;;20.30;99.90;;;;;;5021429;28;20093;-64
2023/07/12 02:09:34;;;;;;;38.70;31.75;;;20.20;90.40;;;;;;5013122;28;20038;-63
2023/07/12 02:11:59;;;;;;;43.55;32.42;;;20.20;55.90;;;;;;5012835;28;20567;-64
2023/07/12 02:14:25;;;;;;;37.25;32.35;;;20.20;16.70;;;;;;5030045;28;20060;-63
2023/07/12 02:16:50;;;;;;;37.60;33.47;;;20.20;1.00;;;;;;5024766;28;20120;-64
2023/07/12 02:19:16;;;;;;;42.50;33.38;;;20.00;1.60;;;;;;5023597;28;20067;-63
2023/07/12 02:21:42;;;;;;;42.50;35.03;;;20.10;25.00;;;;;;5015976;28;20172;-63
2023/07/12 02:24:07;;;;;;;39.88;34.72;;;20.10;96.00;;;;;;5028180;28;20041;-63
2023/07/12 02:26:34;;;;;;;38.63;33.67;;;20.20;99.90;;;;;;5025391;28;20069;-64
2023/07/12 02:29:00;;;;;;;40.10;33.13;;;20.10;99.90;;;;;;5013959;28;20038;-63
2023/07/12 02:31:30;;;;;;;39.47;33.00;;;20.00;99.90;;;;;;5012595;28;20096;-64
2023/07/12 02:33:56;;;;;;;37.10;32.47;;;20.10;99.90;;;;;;5017270;28;20408;-63
2023/07/12 02:36:21;;;;;;;39.88;32.90;;;20.00;99.90;;;;;;5011670;28;20046;-64
2023/07/12 02:38:47;;;;;;;37.85;31.90;;;20.10;99.90;;;;;;5013400;28;20400;-63
2023/07/12 02:41:14;;;;;;;38.53;33.05;;;20.10;99.90;;;;;;5012248;28;20128;-63
2023/07/12 02:43:40;;;;;;;36.35;32.45;;;20.00;99.90;;;;;;5013279;28;20085;-63
2023/07/12 02:46:05;;;;;;;38.85;32.22;;;20.00;99.90;;;;;;5012650;28;20169;-63
2023/07/12 02:48:31;;;;;;;37.90;32.03;;;19.90;99.90;;;;;;5022813;28;20065;-63
2023/07/12 02:50:57;;;;;;;42.70;32.60;;;19.90;99.90;;;;;;5016312;28;20048;-63
2023/07/12 02:53:22;;;;;;;37.28;32.65;;;19.90;99.90;;;;;;5009841;28;20113;-63
2023/07/12 02:55:49;;;;;;;36.92;32.65;;;19.90;99.90;;;;;;5005925;28;20044;-63
2023/07/12 02:58:15;;;;;;;38.65;31.90;;;19.90;99.90;;;;;;5014377;28;20041;-63
2023/07/12 03:00:41;;;;;;;39.45;33.63;;;20.00;70.80;;;;;;5012204;28;20121;-64
2023/07/12 03:03:09;;;;;;;39.53;33.55;;;20.00;31.20;;;;;;5022256;28;20128;-64
2023/07/12 03:05:38;;;;;;;39.40;33.70;;;19.90;52.60;;;;;;5019142;28;20073;-64
2023/07/12 03:08:04;;;;;;;39.13;33.75;;;19.90;97.70;;;;;;5014464;28;20099;-64
2023/07/12 03:10:31;;;;;;;37.10;33.05;;;20.00;99.90;;;;;;5023673;28;20085;-64
2023/07/12 03:12:56;;;;;;;44.70;33.83;;;20.00;99.90;;;;;;5019084;28;20538;-63
2023/07/12 03:15:22;;;;;;;38.08;33.42;;;19.90;99.90;;;;;;5012817;28;20078;-64
2023/07/12 03:17:48;;;;;;;42.88;34.42;;;19.90;99.90;;;;;;5018612;28;20381;-63
2023/07/12 03:20:14;;;;;;;39.28;32.35;;;20.00;99.90;;;;;;5031587;28;20052;-64
2023/07/12 03:22:40;;;;;;;41.08;34.15;;;20.00;99.90;;;;;;5020475;28;20038;-63
2023/07/12 03:25:05;;;;;;;45.17;34.38;;;19.90;99.90;;;;;;5010809;28;20061;-64
2023/07/12 03:27:31;;;;;;;40.53;34.65;;;19.80;99.90;;;;;;5011617;28;20045;-64
2023/07/12 03:29:57;;;;;;;37.75;32.85;;;19.90;1.00;;;;;;5028770;28;20034;-64
2023/07/12 03:32:24;;;;;;;37.63;33.60;;;19.90;99.90;;;;;;5026758;28;20025;-64
2023/07/12 03:34:50;;;;;;;44.03;34.42;;;20.00;99.90;;;;;;5012533;28;20547;-64
2023/07/12 03:37:15;;;;;;;36.13;32.22;;;19.90;99.90;;;;;;5015137;28;20041;-64
2023/07/12 03:39:41;;;;;;;37.95;31.88;;;20.00;99.90;;;;;;5012631;28;20502;-64
2023/07/12 03:42:07;;;;;;;38.28;34.10;;;20.00;99.90;;;;;;5011739;28;20181;-63
2023/07/12 03:44:32;;;;;;;39.35;31.88;;;20.20;99.90;;;;;;5020629;28;20492;-63
2023/07/12 03:46:58;;;;;;;39.88;33.45;;;20.00;51.80;;;;;;5011141;28;20081;-63
2023/07/12 03:49:23;;;;;;;42.75;33.90;;;20.10;1.00;;;;;;5010843;28;20045;-63
2023/07/12 03:51:49;;;;;;;38.50;32.63;;;20.00;1.00;;;;;;5010911;28;20052;-63
2023/07/12 03:54:14;;;;;;;36.80;31.50;;;20.00;99.90;;;;;;5000150;28;20057;-63
2023/07/12 03:56:40;;;;;;;37.70;33.00;;;20.00;99.90;;;;;;5008249;28;20053;-63
2023/07/12 03:59:08;;;;;;;42.53;32.83;;;20.10;64.80;;;;;;5010689;28;20544;-63
2023/07/12 04:01:35;;;;;;;39.67;34.40;;;20.20;7.20;;;;;;4990906;28;20081;-63
2023/07/12 04:04:01;;;;;;;46.50;34.70;;;20.10;6.70;;;;;;5012694;28;20077;-64
2023/07/12 04:06:26;;;;;;;44.58;36.97;;;20.10;5.00;;;;;;5018258;28;20089;-64
2023/07/12 04:08:52;;;;;;;40.67;35.25;;;20.20;28.60;;;;;;5010898;28;20411;-64
2023/07/12 04:11:30;;;;;;;45.20;35.25;;;20.20;6.50;;;;;;5030235;28;20041;-63
2023/07/12 04:13:55;;;;;;;39.65;35.35;;;20.00;1.00;;;;;;5010663;28;20115;-64
2023/07/12 04:16:24;;;;;;;44.55;36.67;;;20.20;1.00;;;;;;5013367;28;20471;-63
2023/07/12 04:18:51;;;;;;;49.53;37.08;;;20.20;29.70;;;;;;5007247;28;20133;-63
2023/07/12 04:21:16;;;;;;;45.78;37.85;;;20.00;99.90;;;;;;5010214;28;20054;-63
2023/07/12 04:23:42;;;;;;;42.22;36.17;;;20.10;99.90;;;;;;5006969;28;20042;-64
2023/07/12 04:26:09;;;;;;;40.30;35.97;;;20.00;99.90;;;;;;5012813;28;20049;-64
2023/07/12 04:28:39;;;;;;;46.03;36.55;;;20.00;99.90;;;;;;5011619;28;20038;-64
2023/07/12 04:31:11;;;;;;;43.75;37.05;;;20.00;99.90;;;;;;5018244;28;20068;-64
2023/07/12 04:33:37;;;;;;;48.88;36.65;;;20.00;99.90;;;;;;5014309;28;20046;-64
2023/07/12 04:36:05;;;;;;;44.47;36.15;;;20.10;99.90;;;;;;5012506;28;20128;-63
2023/07/12 04:38:30;;;;;;;47.80;37.65;;;20.20;99.90;;;;;;5011411;28;20049;-63
2023/07/12 04:40:56;;;;;;;51.30;38.70;;;20.10;99.90;;;;;;5011238;28;20053;-63
2023/07/12 04:43:22;;;;;;;49.17;37.28;;;20.20;99.90;;;;;;5010776;28;20137;-64
2023/07/12 04:45:49;;;;;;;51.60;36.80;;;20.20;99.90;;;;;;5011289;28;20107;-63
2023/07/12 04:48:15;;;;;;;45.97;37.97;;;20.10;1.00;;;;;;5009476;28;20050;-64
2023/07/12 04:50:42;;;;;;;50.67;39.70;;;20.30;95.00;;;;;;5010007;28;20445;-64
2023/07/12 04:53:07;;;;;;;49.95;38.67;;;20.00;99.90;;;;;;5040384;28;20401;-63
2023/07/12 04:55:34;;;;;;;52.33;37.72;;;20.10;2.60;;;;;;5008374;28;20079;-64
2023/07/12 04:57:59;;;;;;;47.58;37.00;;;20.00;1.00;;;;;;5020256;28;20045;-64
2023/07/12 05:00:25;;;;;;;51.40;38.40;;;19.90;99.90;;;;;;5011835;28;20123;-64
2023/07/12 05:02:52;;;;;;;47.58;36.88;;;19.90;1.00;;;;;;5001549;28;20141;-64
2023/07/12 05:05:20;;;;;;;50.85;37.58;;;20.10;99.90;;;;;;5009834;28;20034;-63
2023/07/12 05:07:46;;;;;;;54.55;38.00;;;19.80;1.00;;;;;;5013018;28;20038;-63
2023/07/12 05:10:11;;;;;;;48.78;37.88;;;20.00;99.90;;;;;;5005201;28;20037;-63
2023/07/12 05:12:38;;;;;;;46.22;38.40;;;19.80;99.90;;;;;;5010149;28;20037;-63
2023/07/12 05:15:05;;;;;;;46.10;38.42;;;19.90;1.00;;;;;;5009885;28;20053;-64
2023/07/12 05:17:30;;;;;;;51.28;37.83;;;19.90;1.00;;;;;;5010725;28;20052;-63
2023/07/12 05:19:56;;;;;;;48.05;37.40;;;19.70;1.00;;;;;;5012438;28;20046;-64
2023/07/12 05:22:23;;;;;;;46.17;37.70;;;19.80;1.00;;;;;;5013591;28;20507;-63
2023/07/12 05:24:48;;;;;;;45.67;36.70;;;20.00;1.00;;;;;;5017822;28;20435;-64
2023/07/12 05:27:14;;;;;;;49.60;37.05;;;19.70;1.00;;;;;;5014271;28;20099;-63
2023/07/12 05:29:40;;;;;;;48.83;36.88;;;19.80;1.00;;;;;;5015741;28;20069;-63
2023/07/12 05:32:05;;;;;;;45.95;36.05;;;20.10;1.00;;;;;;5015809;28;20033;-64
2023/07/12 05:34:31;;;;;;;45.50;36.75;;;19.90;1.00;;;;;;5011906;28;20038;-63
2023/07/12 05:36:56;;;;;;;44.42;37.28;;;19.90;99.90;;;;;;5007952;28;20124;-63
2023/07/12 05:39:22;;;;;;;42.95;36.78;;;20.00;99.90;;;;;;5012463;28;20038;-63
2023/07/12 05:41:47;;;;;;;53.58;38.42;;;20.00;25.80;;;;;;5015882;28;20037;-63
2023/07/12 05:44:13;;;;;;;50.50;39.17;;;20.00;1.00;;;;;;5009568;28;20054;-63
2023/07/12 05:46:38;;;;;;;51.97;40.95;;;20.10;99.90;;;;;;5005845;28;20427;-64
2023/07/12 05:49:04;;;;;;;49.40;39.78;;;20.00;99.90;;;;;;5007745;28;20033;-63
2023/07/12 05:51:33;;;;;;;48.80;42.05;;;19.90;99.90;;;;;;5000749;28;20476;-63
2023/07/12 05:53:58;;;;;;;48.95;42.88;;;20.00;1.00;;;;;;5004880;28;20045;-64
2023/07/12 05:56:24;;;;;;;52.97;42.30;;;19.90;37.60;;;;;;5014023;28;20044;-64
2023/07/12 05:58:49;;;;;;;47.25;39.65;;;19.80;99.90;;;;;;5009274;28;20645;-63
2023/07/12 06:01:17;;;;;;;50.08;42.05;;;20.10;1.00;;;;;;5009329;28;20121;-64
2023/07/12 06:03:43;;;;;;;44.67;40.05;;;20.20;11.70;;;;;;5009951;28;20052;-63
2023/07/12 06:06:09;;;;;;;44.47;37.15;;;20.20;99.90;;;;;;5021652;28;20037;-64
2023/07/12 06:08:35;;;;;;;43.65;37.80;;;20.60;99.90;;;;;;5002971;28;20034;-63
2023/07/12 06:11:01;;;;;;;47.78;36.88;;;20.60;1.00;;;;;;5012061;28;20038;-65
2023/07/12 06:13:27;;;;;;;44.95;37.05;;;20.60;99.90;;;;;;5008212;28;20049;-66
2023/07/12 06:15:53;;;;;;;40.83;36.53;;;20.60;99.90;;;;;;5006230;28;20437;-65
2023/07/12 06:18:19;;;;;;;46.00;36.78;;;20.60;6.80;;;;;;5020514;28;20056;-64
2023/07/12 06:20:45;;;;;;;48.83;39.47;;;20.50;99.90;;;;;;5003015;28;20050;-64
2023/07/12 06:23:11;;;;;;;47.05;40.45;;;20.30;99.90;;;;;;5004184;28;20120;-64
2023/07/12 06:25:37;;;;;;;46.83;37.92;;;20.50;99.90;;;;;;5009213;28;20471;-64
2023/07/12 06:28:03;;;;;;;48.95;38.85;;;20.40;99.90;;;;;;5014106;28;20045;-64
2023/07/12 06:30:29;;;;;;;50.90;40.67;;;20.30;99.90;;;;;;5008256;28;20060;-65
2023/07/12 06:32:55;;;;;;;48.40;40.33;;;21.30;1.00;;;;;;5008542;28;20038;-64
2023/07/12 06:35:20;;;;;;;47.85;39.10;;;20.20;99.90;;;;;;5013868;28;20414;-65
2023/07/12 06:37:46;;;;;;;44.20;38.97;;;19.90;99.90;;;;;;5008539;28;20034;-64
2023/07/12 06:40:11;;;;;;;45.13;38.80;;;19.90;1.00;;;;;;5008868;28;20519;-64
2023/07/12 06:42:37;;;;;;;43.92;38.97;;;20.10;1.00;;;;;;5007820;28;20492;-65
2023/07/12 06:45:03;;;;;;;39.78;35.55;;;20.00;1.00;;;;;;5005107;28;20061;-64
2023/07/12 06:47:28;;;;;;;39.33;35.15;;;19.90;1.00;;;;;;5009504;28;20526;-64
2023/07/12 06:49:54;;;;;;;38.55;34.60;;;20.10;99.90;;;;;;5022520;28;20037;-64
2023/07/12 06:52:20;;;;;;;37.28;33.25;;;20.10;99.90;;;;;;5010748;28;20041;-64
2023/07/12 06:54:46;;;;;;;39.63;34.42;;;20.20;1.00;;;;;;5003301;28;20129;-65
2023/07/12 06:57:11;;;;;;;38.42;34.35;;;20.20;99.90;;;;;;5012442;28;20456;-65
2023/07/12 06:59:37;;;;;;;36.22;32.63;;;20.40;99.90;;;;;;5003391;28;20035;-65
2023/07/12 07:02:03;;;;;;;30.45;27.40;;;20.50;1.00;;;;;;5010585;28;20426;-65
2023/07/12 07:04:28;;;;;;;30.60;27.52;;;20.50;1.00;;;;;;5011052;28;20038;-65
2023/07/12 07:06:54;;;;;;;30.75;28.00;;;20.70;1.00;;;;;;5000718;28;20224;-65
2023/07/12 07:09:20;;;;;;;32.88;29.45;;;20.80;16.50;;;;;;5000406;28;20053;-65
2023/07/12 07:11:45;;;;;;;31.60;28.60;;;21.00;99.90;;;;;;4994685;28;20033;-65
2023/07/12 07:14:11;;;;;;;29.17;26.45;;;20.90;99.90;;;;;;5009188;28;20125;-65
2023/07/12 07:16:37;;;;;;;32.17;29.02;;;21.30;1.00;;;;;;5004728;28;20127;-65
2023/07/12 07:19:03;;;;;;;39.25;29.73;;;21.40;99.90;;;;;;4999840;28;20499;-65
2023/07/12 07:21:28;;;;;;;32.45;29.42;;;21.30;1.00;;;;;;5005351;28;20037;-65
2023/07/12 07:23:54;;;;;;;32.70;29.52;;;21.30;99.90;;;;;;5004553;28;20129;-65
2023/07/12 07:26:19;;;;;;;37.25;29.85;;;21.40;28.50;;;;;;5016889;28;20041;-65
2023/07/12 07:28:45;;;;;;;28.30;25.27;;;21.40;1.00;;;;;;5017292;28;20037;-64
2023/07/12 07:31:11;;;;;;;32.33;28.95;;;21.50;99.90;;;;;;5009927;28;20100;-66
2023/07/12 07:33:39;;;;;;;30.20;27.17;;;21.60;99.90;;;;;;5025729;28;20052;-65
2023/07/12 07:36:06;;;;;;;31.85;26.67;;;21.90;77.00;;;;;;5003821;28;20127;-65
2023/07/12 07:38:32;;;;;;;28.58;25.55;;;22.10;1.00;;;;;;5012462;28;20044;-65
2023/07/12 07:40:58;;;;;;;30.35;27.48;;;22.20;99.90;;;;;;5010404;28;20042;-65
2023/07/12 07:43:24;;;;;;;29.05;26.08;;;22.20;99.90;;;;;;5003911;28;20060;-65
2023/07/12 07:45:49;;;;;;;31.25;27.85;;;22.00;1.00;;;;;;5008052;28;20057;-65
2023/07/12 07:48:15;;;;;;;31.13;28.27;;;21.80;1.00;;;;;;5006729;28;20416;-65
2023/07/12 07:50:42;;;;;;;29.77;27.10;;;21.60;1.00;;;;;;5007547;28;20038;-65
2023/07/12 07:53:09;;;;;;;32.10;28.95;;;21.50;1.00;;;;;;5004346;28;20037;-65
2023/07/12 07:55:41;;;;;;;29.05;26.25;;;21.80;1.00;;;;;;5005929;28;20037;-65
2023/07/12 07:58:09;;;;;;;27.67;24.88;;;21.90;1.00;;;;;;5005628;28;20427;-68
2023/07/12 08:00:36;;;;;;;25.48;22.98;;;22.20;1.00;;;;;;4993756;28;20084;-66
2023/07/12 08:03:03;;;;;;;27.58;22.83;;;22.50;1.00;;;;;;5004252;28;20065;-68
2023/07/12 08:05:29;;;;;;;28.83;25.70;;;22.70;99.90;;;;;;5007900;28;20400;-67
2023/07/12 08:07:55;;;;;;;29.20;26.45;;;22.50;99.90;;;;;;5001522;28;20050;-67
2023/07/12 08:10:21;;;;;;;27.10;24.38;;;22.80;99.90;;;;;;5006495;28;20531;-68
2023/07/12 08:12:48;;;;;;;23.88;21.25;;;22.90;99.90;;;;;;5012903;28;20076;-68
2023/07/12 08:15:13;;;;;;;24.35;21.90;;;23.00;99.90;;;;;;5006006;28;20480;-68
2023/07/12 08:17:39;;;;;;;22.00;20.00;;;23.30;95.60;;;;;;5017227;28;20124;-68
2023/07/12 08:20:06;;;;;;;22.45;20.35;;;23.00;1.00;;;;;;5003785;28;20085;-67
2023/07/12 08:22:32;;;;;;;24.90;22.40;;;23.10;1.00;;;;;;5005604;28;20042;-69
2023/07/12 08:24:58;;;;;;;23.63;21.27;;;23.10;1.00;;;;;;5007774;28;20026;-68
2023/07/12 08:27:24;;;;;;;26.38;24.05;;;23.10;1.00;;;;;;5008932;28;20497;-68
2023/07/12 08:29:49;;;;;;;26.77;24.38;;;22.90;1.00;;;;;;4997714;28;20046;-66
2023/07/12 08:32:15;;;;;;;25.90;23.48;;;22.80;1.00;;;;;;5001148;28;20034;-67
2023/07/12 08:34:41;;;;;;;27.08;24.52;;;22.70;1.00;;;;;;5007077;28;20064;-69
2023/07/12 08:37:06;;;;;;;24.80;22.42;;;22.80;1.00;;;;;;4995207;28;20042;-67
2023/07/12 08:39:32;;;;;;;29.25;26.50;;;22.50;1.00;;;;;;4997976;28;20034;-68
2023/07/12 08:41:59;;;;;;;23.77;21.60;;;22.40;1.00;;;;;;5015168;28;20450;-68
2023/07/12 08:44:26;;;;;;;24.70;22.30;;;22.70;1.00;;;;;;5003365;28;20052;-70
2023/07/12 08:46:57;;;;;;;22.73;20.52;;;22.70;1.00;;;;;;5007790;28;20049;-66
2023/07/12 08:49:24;;;;;;;21.45;19.42;;;22.80;1.00;;;;;;5000396;28;20457;-69
2023/07/12 08:51:53;;;;;;;23.80;21.42;;;23.00;1.00;;;;;;5007303;28;20132;-68
2023/07/12 08:54:23;;;;;;;25.42;21.52;;;22.80;99.90;;;;;;5006386;28;20041;-66
2023/07/12 08:57:14;;;;;;;18.92;16.88;;;22.90;1.00;;;;;;5001458;28;20038;-66
2023/07/12 08:59:40;;;;;;;18.75;17.10;;;23.10;99.90;;;;;;5008162;28;20049;-68
2023/07/12 09:02:19;;;;;;;20.85;19.05;;;23.20;99.90;;;;;;5005686;28;20046;-67
2023/07/12 09:04:44;;;;;;;25.08;22.48;;;23.00;99.90;;;;;;5001789;28;20829;-68
2023/07/12 09:07:10;;;;;;;23.08;21.20;;;22.90;99.90;;;;;;5013982;28;20041;-67
2023/07/12 09:09:38;;;;;;;23.08;20.88;;;23.00;99.90;;;;;;5008096;28;20555;-66
2023/07/12 09:12:07;;;;;;;21.92;19.85;;;23.10;99.90;;;;;;5000812;28;20037;-67
2023/07/12 09:14:35;;;;;;;20.38;18.33;;;23.30;99.90;;;;;;5002972;28;20033;-68
2023/07/12 09:17:02;;;;;;;19.48;17.73;;;23.40;99.90;;;;;;5005151;28;20044;-68
2023/07/12 09:19:36;;;;;;;20.02;16.60;;;23.60;99.90;;;;;;5006037;28;20495;-66
2023/07/12 09:22:13;;;;;;;18.33;16.42;;;23.60;99.90;;;;;;5005102;28;20057;-66
2023/07/12 09:24:43;;;;;;;17.33;15.20;;;23.90;99.90;;;;;;5004213;28;20057;-66
2023/07/12 09:27:25;;;;;;;20.30;18.15;;;24.00;99.90;;;;;;5003266;28;20492;-68
2023/07/12 09:30:02;;;;;;;18.98;16.00;;;23.70;99.90;;;;;;5005966;28;20562;-69
2023/07/12 09:32:36;;;;;;;19.98;16.67;;;23.90;99.90;;;;;;5006142;28;20042;-66
2023/07/12 09:35:37;;;;;;;18.27;16.65;;;24.10;99.90;;;;;;5006569;28;20037;-68
2023/07/12 09:38:08;;;;;;;19.40;17.48;;;24.00;99.90;;;;;;5009624;28;20167;-68
2023/07/12 09:40:48;;;;;;;15.70;14.40;;;24.00;99.90;;;;;;5004914;28;20042;-66
2023/07/12 09:43:20;;;;;;;15.25;13.77;;;23.70;99.90;;;;;;4999905;28;20065;-72
2023/07/12 09:45:59;;;;;;;15.80;14.40;;;23.80;99.90;;;;;;5009949;28;20056;-67
2023/07/12 09:48:42;;;;;;;17.63;13.80;;;23.90;99.90;;;;;;5004672;28;20038;-69
2023/07/12 09:51:28;;;;;;;14.23;12.85;;;24.00;99.90;;;;;;5006843;28;20066;-68
2023/07/12 09:54:11;;;;;;;16.20;14.50;;;24.10;99.90;;;;;;5003322;28;20054;-69
2023/07/12 09:56:53;;;;;;;15.70;14.02;;;24.10;99.90;;;;;;5005599;28;20046;-67
2023/07/12 09:59:34;;;;;;;12.70;10.70;;;23.90;99.90;;;;;;4997971;28;20109;-68
2023/07/12 10:02:42;;;;;;;12.73;10.35;;;23.90;93.70;;;;;;5007241;28;20104;-66
2023/07/12 10:05:19;;;;;;;13.50;10.73;;;23.90;76.80;;;;;;4990699;28;20054;-69
2023/07/12 10:07:55;;;;;;;8.20;7.15;;;23.90;83.00;;;;;;5007417;28;20054;-65
2023/07/12 10:10:39;;;;;;;8.77;7.93;;;24.00;64.20;;;;;;5003190;28;20081;-65
2023/07/12 10:13:36;;;;;;;15.57;14.27;;;23.80;30.20;;;;;;5002658;28;20046;-69
2023/07/12 10:16:04;;;;;;;14.55;12.63;;;23.80;36.20;;;;;;5023237;28;21461;-65
2023/07/12 10:18:34;;;;;;;17.77;15.98;;;24.00;65.30;;;;;;5011317;28;20099;-66
2023/07/12 10:21:01;;;;;;;17.33;15.93;;;24.10;40.90;;;;;;5007514;28;20057;-66
2023/07/12 10:23:33;;;;;;;19.05;17.20;;;24.10;47.00;;;;;;5006440;28;20041;-67
2023/07/12 10:26:03;;;;;;;16.00;14.20;;;24.00;39.80;;;;;;5002236;28;20037;-65
2023/07/12 10:28:47;;;;;;;18.65;17.15;;;24.00;35.40;;;;;;5000945;28;20121;-66
2023/07/12 10:31:55;;;;;;;20.08;18.48;;;23.90;26.50;;;;;;5003436;28;20038;-67
2023/07/12 10:34:32;;;;;;;17.60;15.82;;;23.90;39.20;;;;;;5002872;28;20070;-67
2023/07/12 10:37:14;;;;;;;19.15;17.08;;;23.90;22.00;;;;;;5007825;28;20084;-66
2023/07/12 10:39:40;;;;;;;17.50;16.05;;;23.90;25.00;;;;;;5006000;28;20046;-66
2023/07/12 10:42:25;;;;;;;18.75;17.10;;;23.90;21.70;;;;;;5008357;28;20120;-65
2023/07/12 10:44:57;;;;;;;21.83;19.98;;;23.90;14.90;;;;;;5006874;28;20115;-67
2023/07/12 10:47:30;;;;;;;21.10;19.40;;;24.00;19.00;;;;;;5006218;28;21170;-65
2023/07/12 10:50:01;;;;;;;22.88;20.77;;;24.00;14.20;;;;;;5008706;28;20046;-66
2023/07/12 10:52:33;;;;;;;24.63;22.38;;;23.80;1.00;;;;;;5001393;28;20563;-68
2023/07/12 10:55:02;;;;;;;31.30;28.50;;;23.90;8.80;;;;;;5020502;28;20049;-65
2023/07/12 10:57:36;;;;;;;32.05;29.40;;;23.70;11.20;;;;;;5013726;28;20080;-65
2023/07/12 11:00:24;;;;;;;34.58;31.08;;;23.30;21.90;;;;;;5010111;28;20076;-66
2023/07/12 11:03:09;;;;;;;26.98;24.85;;;23.40;42.70;;;;;;4987588;28;20050;-66
2023/07/12 11:06:05;;;;;;;27.83;25.33;;;23.60;47.80;;;;;;5008150;28;20522;-67
2023/07/12 11:08:30;;;;;;;37.67;34.42;;;23.60;23.70;;;;;;5007490;28;20398;-65
2023/07/12 11:11:00;;;;;;;33.95;30.90;;;23.30;30.10;;;;;;5011864;28;20046;-66
2023/07/12 11:13:33;;;;;;;36.88;33.38;;;23.30;50.60;;;;;;4987443;28;20099;-65
2023/07/12 11:16:12;;;;;;;39.97;36.65;;;23.50;66.70;;;;;;5002296;28;20042;-67
2023/07/12 11:18:38;;;;;;;37.45;34.15;;;23.20;66.70;;;;;;5001971;28;20126;-66
2023/07/12 11:21:25;;;;;;;39.17;35.28;;;23.30;96.40;;;;;;5006879;28;20030;-68
2023/07/12 11:23:50;;;;;;;33.30;30.23;;;23.40;99.50;;;;;;5008755;28;20107;-66
2023/07/12 11:26:28;;;;;;;38.47;35.15;;;23.40;85.00;;;;;;5009434;28;20045;-65
2023/07/12 11:29:27;;;;;;;35.75;32.47;;;23.60;90.50;;;;;;5005517;28;20037;-66
2023/07/12 11:32:17;;;;;;;36.58;33.47;;;23.50;68.40;;;;;;4997742;28;20042;-66
2023/07/12 11:34:44;;;;;;;38.95;35.25;;;23.40;59.90;;;;;;5007313;28;20042;-66
2023/07/12 11:37:46;;;;;;;38.53;34.95;;;23.40;52.60;;;;;;5005758;28;20034;-66
2023/07/12 11:40:18;;;;;;;36.97;33.78;;;23.30;58.20;;;;;;5007438;28;20041;-66
2023/07/12 11:42:43;;;;;;;38.13;34.83;;;23.40;74.40;;;;;;5002627;28;20037;-65
2023/07/12 11:45:12;;;;;;;35.85;32.60;;;23.50;55.60;;;;;;4997443;28;20296;-67
2023/07/12 11:47:48;;;;;;;34.90;32.20;;;23.60;45.00;;;;;;5006065;28;20071;-59
2023/07/12 11:50:32;;;;;;;35.22;32.10;;;23.40;21.10;;;;;;5009070;28;20928;-59
2023/07/12 11:53:01;;;;;;;34.90;31.60;;;23.30;17.60;;;;;;4992871;28;20062;-58
2023/07/12 11:55:28;;;;;;;34.83;32.03;;;23.40;22.80;;;;;;4995488;28;20061;-59
2023/07/12 11:57:54;;;;;;;38.10;34.92;;;23.40;24.70;;;;;;5003597;28;20053;-59
2023/07/12 12:00:32;;;;;;;40.13;36.47;;;23.40;22.60;;;;;;5006901;28;20508;-58
2023/07/12 12:02:59;;;;;;;41.80;38.20;;;23.40;34.60;;;;;;5007868;28;20046;-59
2023/07/12 12:05:32;;;;;;;41.53;38.13;;;23.50;63.60;;;;;;5006675;28;20069;-58
2023/07/12 12:08:02;;;;;;;40.22;37.03;;;23.40;51.00;;;;;;4997837;28;20049;-58
2023/07/12 12:10:32;;;;;;;44.95;40.80;;;23.30;50.40;;;;;;5003771;28;20081;-58
2023/07/12 12:12:58;;;;;;;44.67;40.80;;;23.40;69.80;;;;;;5005711;28;20117;-58
2023/07/12 12:15:30;;;;;;;43.20;39.60;;;23.10;63.70;;;;;;5003925;28;20056;-58
2023/07/12 12:18:03;;;;;;;40.42;37.00;;;23.20;90.20;;;;;;5022792;28;20049;-58
2023/07/12 12:20:29;;;;;;;41.15;37.75;;;23.30;83.80;;;;;;5014814;28;20124;-58
2023/07/12 12:23:16;;;;;;;40.35;36.58;;;23.30;87.20;;;;;;5003915;28;20128;-58
2023/07/12 12:25:51;;;;;;;40.30;36.72;;;23.30;80.80;;;;;;5005973;28;20038;-59
2023/07/12 12:28:27;;;;;;;;;;;23.40;59.00;;;;;;4995537;28;20377;-58
2023/07/12 12:31:19;;;;;;;41.75;37.97;;;23.20;51.30;;;;;;5003815;28;19925;-59
2023/07/12 12:34:03;;;;;;;39.35;36.08;;;23.30;49.60;;;;;;5011185;28;20447;-58
2023/07/12 12:36:31;;;;;;;40.13;36.95;;;23.10;40.00;;;;;;5009035;28;20045;-58
2023/07/12 12:39:03;;;;;;;35.80;33.28;;;23.10;39.00;;;;;;4998957;28;20129;-58
2023/07/12 12:41:43;;;;;;;40.08;36.95;;;23.10;41.60;;;;;;5007009;28;20053;-58